Time;durP1;ratioP1;P1;durP2;ratioP2;P2;SDS_P1;SDS_P2;PMS_P1;PMS_P2;Temp;Humidity;BMP_temperature;BMP_pressure;BME280_temperature;BME280_humidity;BME280_pressure;Samples;Min_cycle;Max_cycle;Signal;HPM_P1;HPM_P2
2022/07/02 05:04:16;;;;;;;;;;;24.30;62.60;;;;;;5699129;23;20373;-78
2022/07/02 05:06:43;;;;;;;;;;;24.30;62.40;;;;;;4995596;28;20004;-78
2022/07/02 05:09:09;;;;;;;;;;;24.30;62.10;;;;;;4995228;28;20016;-78
2022/07/02 05:11:36;;;;;;;;;;;24.30;61.90;;;;;;4994840;28;20021;-78
2022/07/02 05:14:02;;;;;;;;;;;24.30;61.70;;;;;;4994383;28;20012;-78
2022/07/02 05:16:29;;;;;;;;;;;24.20;61.40;;;;;;4994387;28;20016;-78
2022/07/02 05:18:56;;;;;;;;;;;24.20;61.20;;;;;;4994692;28;19928;-78
2022/07/02 05:21:24;;;;;;;;;;;24.20;60.90;;;;;;4994668;28;20016;-78
2022/07/02 05:23:51;;;;;;;;;;;24.20;60.70;;;;;;5017520;23;20258;-76
2022/07/02 05:26:19;;;;;;;;;;;24.20;60.40;;;;;;4994699;28;20012;-76
2022/07/02 05:28:45;;;;;;;;;;;24.20;60.10;;;;;;4994664;28;20537;-76
2022/07/02 05:31:12;;;;;;;;;;;24.20;60.10;;;;;;4994675;28;19921;-76
2022/07/02 05:33:39;;;;;;;;;;;24.20;60.10;;;;;;4994547;28;20024;-76
2022/07/02 05:36:06;;;;;;;;;;;24.20;60.10;;;;;;4994684;28;19921;-76
2022/07/02 05:38:34;;;;;;;;;;;24.20;60.10;;;;;;4994513;28;20004;-76
2022/07/02 05:41:00;;;;;;;;;;;24.20;60.10;;;;;;4994201;28;19972;-76
2022/07/02 05:43:27;;;;;;;;;;;24.20;60.10;;;;;;4994406;28;19922;-76
2022/07/02 05:45:54;;;;;;;;;;;24.30;60.00;;;;;;4994513;28;19968;-77
2022/07/02 05:48:20;;;;;;;;;;;24.30;59.90;;;;;;4994543;28;19921;-78
2022/07/02 05:50:47;;;;;;;;;;;24.30;59.80;;;;;;4997732;28;20001;-78
2022/07/02 05:53:14;;;;;;;;;;;24.30;59.90;;;;;;5000014;28;19928;-78
2022/07/02 05:55:42;;;;;;;;;;;24.30;60.00;;;;;;5000327;28;19922;-78
2022/07/02 05:58:10;;;;;;;;;;;24.30;60.10;;;;;;5001331;28;19925;-80
2022/07/02 06:00:36;;;;;;;;;;;24.30;60.20;;;;;;5001499;28;19945;-81
2022/07/02 06:03:03;;;;;;;;;;;24.30;60.20;;;;;;5001968;28;19928;-81
2022/07/02 06:08:14;;;;;;;;;;;24.40;60.40;;;;;;5003595;28;19925;-83
2022/07/02 06:10:42;;;;;;;;;;;24.30;60.20;;;;;;5003101;28;19921;-82
2022/07/02 06:13:09;;;;;;;;;;;24.40;60.40;;;;;;5002750;28;19984;-82
2022/07/02 06:15:36;;;;;;;;;;;24.40;60.40;;;;;;5003119;28;20016;-82
2022/07/02 06:18:03;;;;;;;;;;;24.40;60.40;;;;;;5001898;28;19921;-82
2022/07/02 06:20:30;;;;;;;;;;;24.40;60.30;;;;;;5000336;28;20400;-81
2022/07/02 06:22:57;;;;;;;;;;;24.40;60.20;;;;;;4999661;28;20277;-81
2022/07/02 06:25:24;;;;;;;;;;;24.40;60.10;;;;;;5001366;28;19922;-80
2022/07/02 06:27:52;;;;;;;;;;;24.40;60.00;;;;;;5001287;28;19928;-79
2022/07/02 06:30:19;;;;;;;;;;;24.40;60.00;;;;;;5000779;28;19968;-79
2022/07/02 06:32:45;;;;;;;;;;;24.40;60.00;;;;;;5000933;28;19928;-79
2022/07/02 06:35:12;;;;;;;;;;;24.40;60.00;;;;;;5000160;28;20395;-80
2022/07/02 06:37:39;;;;;;;;;;;24.40;59.90;;;;;;4999085;28;19925;-80
2022/07/02 06:40:06;;;;;;;;;;;24.40;59.90;;;;;;4998560;28;20389;-80
2022/07/02 06:42:33;;;;;;;;;;;24.50;60.00;;;;;;4999141;28;19926;-79
2022/07/02 06:45:01;;;;;;;;;;;24.50;59.90;;;;;;4999727;28;19968;-79
2022/07/02 06:47:29;;;;;;;;;;;24.50;59.90;;;;;;4999043;28;19925;-79
2022/07/02 06:49:58;;;;;;;;;;;24.50;59.90;;;;;;4998209;28;19922;-85
2022/07/02 06:52:25;;;;;;;;;;;24.50;59.90;;;;;;4997552;28;19928;-83
2022/07/02 06:54:52;;;;;;;;;;;24.50;59.80;;;;;;4997767;28;19953;-84
2022/07/02 06:57:19;;;;;;;;;;;24.50;59.80;;;;;;4999829;28;20104;-83
2022/07/02 06:59:46;;;;;;;;;;;24.50;59.70;;;;;;5000697;28;20009;-84
2022/07/02 07:02:15;;;;;;;;;;;24.50;59.70;;;;;;5000376;28;19929;-83
2022/07/02 07:04:42;;;;;;;;;;;24.50;59.60;;;;;;5001712;28;20349;-83
2022/07/02 07:07:10;;;;;;;;;;;24.50;59.50;;;;;;5006793;28;19989;-82
2022/07/02 07:09:37;;;;;;;;;;;24.50;59.40;;;;;;5006934;28;19922;-84
2022/07/02 07:12:05;;;;;;;;;;;24.50;59.30;;;;;;5006547;28;19949;-79
2022/07/02 07:14:31;;;;;;;;;;;24.50;59.30;;;;;;5005910;28;19921;-79
2022/07/02 07:16:58;;;;;;;;;;;24.50;59.20;;;;;;5002419;28;19957;-77
2022/07/02 07:19:26;;;;;;;;;;;24.50;59.00;;;;;;5001628;28;19963;-77
2022/07/02 07:21:53;;;;;;;;;;;24.50;59.00;;;;;;5007056;28;19993;-78
2022/07/02 07:24:19;;;;;;;;;;;24.50;58.90;;;;;;5001710;28;19926;-78
2022/07/02 07:26:46;;;;;;;;;;;24.40;58.70;;;;;;5001198;28;19921;-79
2022/07/02 07:29:13;;;;;;;;;;;24.40;58.70;;;;;;5002438;28;19986;-80
2022/07/02 07:31:40;;;;;;;;;;;24.40;58.50;;;;;;5005518;28;19985;-79
2022/07/02 07:34:07;;;;;;;;;;;24.40;58.40;;;;;;5002911;28;19953;-81
2022/07/02 07:36:35;;;;;;;;;;;24.40;58.20;;;;;;5003509;28;19925;-81
2022/07/02 07:39:03;;;;;;;;;;;24.40;58.10;;;;;;5003350;28;19964;-81
2022/07/02 07:41:30;;;;;;;;;;;24.40;57.90;;;;;;5003105;28;20292;-81
2022/07/02 07:43:57;;;;;;;;;;;24.40;57.60;;;;;;5004072;28;19957;-80
2022/07/02 07:46:24;;;;;;;;;;;24.30;57.40;;;;;;5004452;28;19989;-82
2022/07/02 07:48:51;;;;;;;;;;;24.30;57.20;;;;;;5002114;28;20008;-83
2022/07/02 07:51:18;;;;;;;;;;;24.30;57.00;;;;;;5007261;28;19922;-80
2022/07/02 07:53:46;;;;;;;;;;;24.30;56.80;;;;;;5002243;28;20005;-83
2022/07/02 07:56:14;;;;;;;;;;;24.30;56.60;;;;;;5001749;28;19957;-77
2022/07/02 07:58:40;;;;;;;;;;;24.30;56.30;;;;;;5002738;28;19926;-78
2022/07/02 08:01:07;;;;;;;;;;;24.30;56.10;;;;;;4999062;28;19922;-79
2022/07/02 08:03:34;;;;;;;;;;;24.30;55.90;;;;;;5003767;28;20022;-79
2022/07/02 08:06:00;;;;;;;;;;;24.30;55.60;;;;;;5005972;28;20341;-80
2022/07/02 08:08:27;;;;;;;;;;;24.30;55.40;;;;;;5004707;28;20013;-80
2022/07/02 08:10:55;;;;;;;;;;;24.30;55.40;;;;;;5008237;28;20021;-79
2022/07/02 08:13:22;;;;;;;;;;;24.30;55.40;;;;;;5008817;28;19964;-79
2022/07/02 08:15:48;;;;;;;;;;;24.30;55.10;;;;;;5005813;28;19952;-79
2022/07/02 08:18:15;;;;;;;;;;;24.30;54.80;;;;;;5004918;28;19972;-81
2022/07/02 08:20:42;;;;;;;;;;;24.30;54.60;;;;;;5006216;28;20008;-83
2022/07/02 08:23:08;;;;;;;;;;;24.30;54.40;;;;;;5004201;28;19949;-79
2022/07/02 08:25:35;;;;;;;;;;;24.30;54.20;;;;;;4995871;28;19922;-78
2022/07/02 08:28:04;;;;;;;;;;;24.30;54.00;;;;;;4995415;28;20008;-78
2022/07/02 08:30:30;;;;;;;;;;;24.30;53.90;;;;;;4995392;28;19926;-78
2022/07/02 08:32:57;;;;;;;;;;;24.30;53.70;;;;;;4995899;28;19932;-78
2022/07/02 08:35:24;;;;;;;;;;;24.30;53.50;;;;;;4995395;28;20012;-78
2022/07/02 08:37:52;;;;;;;;;;;24.30;53.40;;;;;;4995161;28;20428;-78
2022/07/02 08:40:21;;;;;;;;;;;24.30;53.20;;;;;;5000384;28;19928;-81
2022/07/02 08:42:48;;;;;;;;;;;24.30;53.00;;;;;;5001535;28;19928;-80
2022/07/02 08:45:16;;;;;;;;;;;24.30;52.90;;;;;;5001841;28;20293;-83
2022/07/02 08:47:43;;;;;;;;;;;24.30;52.80;;;;;;5002336;28;20035;-83
2022/07/02 08:50:11;;;;;;;;;;;24.30;52.60;;;;;;5003799;28;20017;-85
2022/07/02 08:52:39;;;;;;;;;;;24.30;52.50;;;;;;5004471;28;19985;-84
2022/07/02 08:55:06;;;;;;;;;;;24.30;52.30;;;;;;5003810;28;19922;-83
2022/07/02 08:57:33;;;;;;;;;;;24.30;52.30;;;;;;5010029;28;19968;-86
2022/07/02 09:00:00;;;;;;;;;;;24.30;52.20;;;;;;5000867;28;20317;-78
2022/07/02 09:02:29;;;;;;;;;;;24.30;52.20;;;;;;4997283;28;19922;-81
2022/07/02 09:04:57;;;;;;;;;;;24.30;52.10;;;;;;5001959;28;19929;-82
2022/07/02 09:07:24;;;;;;;;;;;24.40;52.10;;;;;;5004413;28;19922;-79
2022/07/02 09:09:52;;;;;;;;;;;24.40;52.10;;;;;;5004194;28;19998;-79
2022/07/02 09:12:18;;;;;;;;;;;24.40;52.00;;;;;;5001776;28;19957;-79
2022/07/02 19:18:45;;;;;;;;;;;24.80;51.80;;;;;;5215329;23;19928;-79
2022/07/02 19:21:11;;;;;;;;;;;24.80;51.90;;;;;;4997972;28;19922;-78
2022/07/02 19:23:39;;;;;;;;;;;24.80;52.00;;;;;;4997977;28;19926;-78
2022/07/02 19:30:27;;;;;;;;;;;24.80;52.10;;;;;;4997092;28;20241;-78
2022/07/02 19:31:36;;;;;;;;;;;24.80;52.20;;;;;;4997201;28;20001;-78
2022/07/02 19:34:05;;;;;;;;;;;24.70;52.30;;;;;;4996558;28;19922;-78
2022/07/02 19:36:31;;;;;;;;;;;24.70;52.40;;;;;;4997059;28;19928;-78
2022/07/02 19:38:58;;;;;;;;;;;24.70;52.40;;;;;;4996290;28;20024;-77
2022/07/02 19:41:24;;;;;;;;;;;24.70;52.50;;;;;;4996358;28;19928;-77
2022/07/02 19:43:51;;;;;;;;;;;24.70;53.10;;;;;;4996304;28;19922;-77
2022/07/02 19:46:18;;;;;;;;;;;24.70;52.60;;;;;;4996289;28;20021;-77
2022/07/02 19:48:44;;;;;;;;;;;24.70;52.70;;;;;;4996160;28;19927;-77
2022/07/02 19:51:12;;;;;;;;;;;24.70;53.40;;;;;;4995866;28;20008;-77
2022/07/02 19:53:39;;;;;;;;;;;24.70;52.90;;;;;;4996150;28;19921;-77
2022/07/02 19:56:06;;;;;;;;;;;24.70;52.90;;;;;;4995761;28;20290;-77
2022/07/02 19:58:32;;;;;;;;;;;24.70;53.00;;;;;;4995941;28;19944;-77
2022/07/02 20:00:59;;;;;;;;;;;24.70;53.10;;;;;;4995955;28;19928;-77
2022/07/02 20:03:26;;;;;;;;;;;24.70;53.20;;;;;;4995864;28;20021;-77
2022/07/02 20:05:52;;;;;;;;;;;24.70;53.20;;;;;;4996465;28;19921;-77
2022/07/02 20:08:20;;;;;;;;;;;24.70;53.30;;;;;;4995386;28;20020;-77
2022/07/02 20:10:48;;;;;;;;;;;24.70;53.40;;;;;;4995781;28;19922;-77
2022/07/02 20:13:14;;;;;;;;;;;24.70;53.50;;;;;;4995740;28;19961;-77
2022/07/02 20:15:42;;;;;;;;;;;24.70;53.50;;;;;;4995702;28;19923;-77
2022/07/02 20:18:09;;;;;;;;;;;24.70;53.60;;;;;;4995373;28;19928;-77
2022/07/02 20:20:35;;;;;;;;;;;24.70;53.70;;;;;;4995621;28;19921;-77
2022/07/02 20:23:02;;;;;;;;;;;24.70;53.80;;;;;;4995538;28;19921;-77
2022/07/02 20:25:32;;;;;;;;;;;24.70;53.80;;;;;;4996008;28;19921;-77
2022/07/02 20:27:58;;;;;;;;;;;24.70;53.90;;;;;;4995387;28;20409;-77
2022/07/02 20:30:25;;;;;;;;;;;24.70;54.00;;;;;;4995586;28;19922;-77
2022/07/02 20:32:52;;;;;;;;;;;24.70;54.10;;;;;;4995404;28;19921;-77
2022/07/02 20:35:19;;;;;;;;;;;24.70;54.10;;;;;;4995279;28;19925;-77
2022/07/02 20:37:46;;;;;;;;;;;24.70;54.20;;;;;;4995092;28;19943;-77
2022/07/02 20:40:13;;;;;;;;;;;24.70;54.20;;;;;;4994964;28;19963;-77
2022/07/02 20:42:41;;;;;;;;;;;24.70;54.30;;;;;;4995057;28;19928;-77
2022/07/02 20:45:08;;;;;;;;;;;24.60;54.30;;;;;;4994789;28;20379;-77
2022/07/02 20:47:35;;;;;;;;;;;24.60;54.40;;;;;;4995003;28;19922;-77
2022/07/02 20:50:02;;;;;;;;;;;24.70;54.50;;;;;;4995119;28;20017;-77
2022/07/02 20:52:29;;;;;;;;;;;24.70;54.60;;;;;;4994953;28;19928;-77
2022/07/02 20:54:55;;;;;;;;;;;24.60;54.60;;;;;;4994999;28;20029;-77
2022/07/02 20:57:22;;;;;;;;;;;24.60;54.60;;;;;;4994889;28;19976;-77
2022/07/02 20:59:50;;;;;;;;;;;24.60;54.70;;;;;;4994859;28;20283;-78
2022/07/02 21:02:17;;;;;;;;;;;24.60;54.80;;;;;;4994925;28;19922;-77
2022/07/02 21:04:44;;;;;;;;;;;24.60;54.80;;;;;;4994826;28;19928;-77
2022/07/02 21:07:10;;;;;;;;;;;24.60;54.90;;;;;;4994767;28;20020;-77
2022/07/02 21:09:37;;;;;;;;;;;24.60;55.00;;;;;;4994777;28;20013;-78
2022/07/02 21:12:05;;;;;;;;;;;24.60;55.00;;;;;;4994789;28;20019;-77
2022/07/02 21:14:31;;;;;;;;;;;24.60;55.10;;;;;;4994474;28;20365;-77
2022/07/02 21:16:59;;;;;;;;;;;24.60;55.20;;;;;;4994670;28;20008;-77
2022/07/02 21:19:26;;;;;;;;;;;24.60;55.30;;;;;;4994379;28;19928;-77
2022/07/02 21:21:53;;;;;;;;;;;24.60;55.30;;;;;;4993761;28;20336;-77
2022/07/02 21:24:19;;;;;;;;;;;24.60;55.40;;;;;;4994630;28;20303;-77
2022/07/02 21:26:46;;;;;;;;;;;24.60;55.40;;;;;;4994282;28;20373;-77
2022/07/02 21:29:13;;;;;;;;;;;24.60;55.50;;;;;;4994596;28;19926;-77
2022/07/02 21:31:39;;;;;;;;;;;24.60;55.70;;;;;;4994580;28;20311;-77
2022/07/02 21:34:07;;;;;;;;;;;24.60;55.70;;;;;;4994736;28;19985;-77
2022/07/02 21:36:34;;;;;;;;;;;24.60;55.70;;;;;;4994223;28;20016;-77
2022/07/02 21:39:02;;;;;;;;;;;24.60;55.70;;;;;;4994350;28;19922;-77
2022/07/02 21:41:29;;;;;;;;;;;24.50;55.60;;;;;;4994192;28;20016;-77
2022/07/02 21:43:56;;;;;;;;;;;24.50;55.60;;;;;;4994537;28;20278;-77
2022/07/02 21:46:23;;;;;;;;;;;24.50;55.60;;;;;;4994406;28;20012;-77
2022/07/02 21:48:49;;;;;;;;;;;24.50;55.60;;;;;;4994011;28;19929;-77
2022/07/02 21:51:17;;;;;;;;;;;24.50;55.60;;;;;;4994047;28;19965;-77
2022/07/02 21:53:44;;;;;;;;;;;24.50;55.60;;;;;;4994371;28;19922;-77
2022/07/02 21:56:11;;;;;;;;;;;24.50;55.60;;;;;;4994330;28;19922;-77
2022/07/02 21:58:37;;;;;;;;;;;24.50;55.60;;;;;;4994284;28;19922;-77
2022/07/02 22:01:04;;;;;;;;;;;24.50;55.70;;;;;;4994606;28;20016;-77
2022/07/02 22:03:31;;;;;;;;;;;24.50;55.80;;;;;;4994327;28;20024;-77
2022/07/02 22:05:57;;;;;;;;;;;24.50;55.90;;;;;;4994290;28;19928;-77
2022/07/02 22:08:25;;;;;;;;;;;24.50;55.90;;;;;;4994467;28;20012;-77
2022/07/02 22:10:52;;;;;;;;;;;24.50;56.00;;;;;;4994280;28;19926;-78
2022/07/02 22:13:19;;;;;;;;;;;24.50;56.00;;;;;;4994190;28;20016;-77
2022/07/02 22:15:45;;;;;;;;;;;24.50;56.10;;;;;;4994219;28;20012;-77
2022/07/02 22:18:12;;;;;;;;;;;24.50;56.10;;;;;;4994018;28;20384;-77
2022/07/02 22:20:55;;;;;;;;;;;24.50;56.10;;;;;;4994506;28;19944;-77
2022/07/02 22:23:22;;;;;;;;;;;24.50;56.20;;;;;;4994198;28;19922;-77
2022/07/02 22:25:52;;;;;;;;;;;24.50;56.20;;;;;;4993841;28;20266;-77
2022/07/02 22:28:19;;;;;;;;;;;24.50;56.30;;;;;;4994082;28;19928;-77
2022/07/02 22:30:46;;;;;;;;;;;24.50;56.30;;;;;;4994110;28;19922;-77
2022/07/02 22:33:13;;;;;;;;;;;24.50;56.30;;;;;;4997183;28;19921;-77
2022/07/02 22:35:39;;;;;;;;;;;24.40;56.30;;;;;;4997277;28;19932;-78
2022/07/02 22:38:06;;;;;;;;;;;24.50;56.40;;;;;;4997041;28;20008;-78
2022/07/02 22:40:33;;;;;;;;;;;24.40;56.30;;;;;;4997219;28;20020;-78
2022/07/02 22:43:01;;;;;;;;;;;24.40;56.40;;;;;;4997486;28;19932;-78
2022/07/02 22:45:27;;;;;;;;;;;24.40;56.40;;;;;;4997093;28;20448;-78
2022/07/02 22:47:54;;;;;;;;;;;24.40;56.40;;;;;;4997015;28;20461;-78
2022/07/02 22:50:21;;;;;;;;;;;24.40;56.40;;;;;;4997345;28;20358;-78
2022/07/02 22:52:47;;;;;;;;;;;24.40;56.40;;;;;;4997330;28;20012;-78
2022/07/02 22:55:14;;;;;;;;;;;24.40;56.50;;;;;;4997250;28;19921;-77
2022/07/02 22:57:41;;;;;;;;;;;24.40;56.50;;;;;;4997118;28;19921;-77
2022/07/02 23:00:10;;;;;;;;;;;24.40;56.50;;;;;;4997069;28;20025;-77
2022/07/02 23:02:36;;;;;;;;;;;24.40;56.50;;;;;;4997089;28;19922;-77
2022/07/02 23:05:03;;;;;;;;;;;24.40;56.50;;;;;;4997049;28;20295;-77
2022/07/02 23:07:30;;;;;;;;;;;24.40;56.60;;;;;;4996961;28;19925;-78
2022/07/02 23:09:57;;;;;;;;;;;24.40;56.60;;;;;;4997047;28;19921;-78
2022/07/02 23:12:23;;;;;;;;;;;24.40;56.60;;;;;;4996672;28;19965;-78
2022/07/02 23:14:50;;;;;;;;;;;24.40;56.60;;;;;;4996874;28;19932;-78
2022/07/02 23:17:18;;;;;;;;;;;24.30;56.60;;;;;;4998751;28;19922;-79
2022/07/02 23:19:44;;;;;;;;;;;24.30;56.50;;;;;;5003883;28;19922;-79
2022/07/02 23:22:11;;;;;;;;;;;24.40;56.70;;;;;;5004333;28;19968;-80
2022/07/02 23:24:38;;;;;;;;;;;24.30;56.60;;;;;;5002135;28;19922;-79
2022/07/02 23:27:05;;;;;;;;;;;24.30;56.60;;;;;;5001898;28;20005;-79
2022/07/02 23:29:32;;;;;;;;;;;24.30;56.60;;;;;;5002286;28;19981;-79
2022/07/02 23:31:58;;;;;;;;;;;24.30;56.60;;;;;;5001471;28;19921;-79
2022/07/02 23:34:26;;;;;;;;;;;24.30;56.60;;;;;;5001259;28;19922;-79
2022/07/02 23:36:59;;;;;;;;;;;24.30;56.60;;;;;;5001606;28;19922;-79
2022/07/02 23:39:26;;;;;;;;;;;24.30;56.60;;;;;;5000453;28;19928;-79
2022/07/02 23:41:53;;;;;;;;;;;24.30;56.60;;;;;;5000584;28;19957;-79
2022/07/02 23:44:20;;;;;;;;;;;24.30;56.60;;;;;;4999757;28;19932;-79
2022/07/02 23:46:47;;;;;;;;;;;24.30;56.60;;;;;;5001011;28;19957;-79
2022/07/02 23:49:13;;;;;;;;;;;24.30;56.60;;;;;;5001130;28;19964;-79
2022/07/02 23:51:41;;;;;;;;;;;24.30;56.60;;;;;;5001753;28;19932;-79
2022/07/02 23:54:08;;;;;;;;;;;24.30;56.60;;;;;;5000892;28;19928;-79
2022/07/02 23:56:35;;;;;;;;;;;24.30;56.60;;;;;;5001327;28;20307;-79
2022/07/02 23:59:02;;;;;;;;;;;24.30;56.60;;;;;;5001412;28;19921;-79
